Hovedside
METAR-TAF:

METAR-TAF

Lufthavner :

Gällivare lufthavn

Gällivare, Sverige

breddegrad: 67-09N, lengdegrad: 020-39E, høyde over havet: 359 m

Gjeldene værobservasjon

Denne rapporten ble laget for 44 minutter siden, klokken 09:20 UTC
Vind 5 kt fra Nord-nordvest, skiftende mellom Nordvest og Nord
Temperatur -5°C
Luftfuktighet 86%
Trykk 1002 hPa
Sikt 10 km eller mer
Overskyet i en høyde av 1500 ft
kornsnø

METAR: ESNG 100920Z 33005KT 310V010 9999 SG OVC015 M05/M07 Q1002

Tid: 11:04 (10:04 UTC)

Varsel

Denne rapporten ble laget for 1 time og 34 minutter siden, klokken 08:30 UTC
Varsel gyldig fra 10. klokken 09 UTC til 10. klokken 12 UTC
Vind 7 kt fra Nord
Sikt 10 km eller mer
Brutte skyer i en høyde av 1500 ft
Sannsynlighet 40%
fra 10. klokken 09 UTC til 10. klokken 12 UTC
Sikt: 2000 m
i en høyde av 600 ft
snø

TAF: ESNG 100830Z 1009/1012 35007KT 9999 BKN015 PROB40 1009/1012 2000 SN VV006

Værobservasjoner og værvarsel for over 4000 flyplasser (METAR- og TAF-rapporter).

Tilgjengelige stasjoner er representert av de røde og gule prikkene på kartet.

Hold musepekeren over prikken for å se navnet på stasjonen.

Klikk så for å se værobservasjoner og -varsler.

For å forandre kartet kan du klikke på den grønne knappen med svart kryss for å zoome inn, på den grønne knappen med strek for å zoome ut, eller på de grønne pilene for å se tilstøtende kart.


METAR-TAF: